Time;durP1;ratioP1;P1;durP2;ratioP2;P2;SDS_P1;SDS_P2;PMS_P1;PMS_P2;Temp;Humidity;BMP_temperature;BMP_pressure;BME280_temperature;BME280_humidity;BME280_pressure;Samples;Min_cycle;Max_cycle;Signal;HPM_P1;HPM_P2
2022/04/04 00:00:07;;;;;;;17.13;11.05;;;-1.30;99.90;;;-2.42;100.00;97948.75;5002735;28;20488;-74
2022/04/04 00:02:34;;;;;;;15.95;8.75;;;-1.30;99.90;;;-2.48;100.00;97952.06;5002526;28;20092;-74
2022/04/04 00:05:03;;;;;;;16.30;9.95;;;-1.30;99.90;;;-2.42;100.00;97951.28;5002896;28;20073;-74
2022/04/04 00:07:30;;;;;;;21.05;9.88;;;-1.30;99.90;;;-2.54;100.00;97950.25;4990769;28;20046;-75
2022/04/04 00:09:57;;;;;;;15.18;9.20;;;-1.30;99.90;;;-2.38;100.00;97945.41;5005521;28;20053;-74
2022/04/04 00:12:24;;;;;;;18.48;10.20;;;-1.30;99.90;;;-2.34;100.00;97953.09;5033260;28;20042;-75
2022/04/04 00:14:51;;;;;;;19.70;10.80;;;-1.40;99.90;;;-2.59;100.00;97954.44;5016859;28;20164;-74
2022/04/04 00:17:18;;;;;;;19.27;9.93;;;-1.30;99.90;;;-2.53;100.00;97949.44;5000435;28;20088;-75
2022/04/04 00:19:45;;;;;;;17.90;10.38;;;-1.30;99.90;;;-2.47;100.00;97948.66;5003522;28;20042;-74
2022/04/04 00:22:12;;;;;;;20.10;11.00;;;-1.40;99.90;;;-2.41;100.00;97946.22;5006249;28;20058;-74
2022/04/04 00:24:39;;;;;;;16.13;9.75;;;-1.40;99.90;;;-2.25;100.00;97933.75;5020240;28;20082;-74
2022/04/04 00:27:06;;;;;;;14.85;9.23;;;-1.50;99.90;;;-2.32;100.00;97926.03;4990203;28;20065;-74
2022/04/04 00:29:34;;;;;;;18.08;9.05;;;-1.50;99.90;;;-2.42;100.00;97916.53;4967617;28;20058;-74
2022/04/04 00:32:00;;;;;;;20.77;10.20;;;-1.50;99.90;;;-2.60;100.00;97926.44;4986853;28;20137;-75
2022/04/04 00:34:28;;;;;;;19.73;11.77;;;-1.50;99.90;;;-2.73;100.00;97927.97;5010459;28;20057;-74
2022/04/04 00:36:55;;;;;;;21.92;11.93;;;-1.50;99.90;;;-2.77;100.00;97924.50;5021297;28;20041;-75
2022/04/04 00:39:22;;;;;;;22.80;12.00;;;-1.50;99.90;;;-2.79;100.00;97921.06;5000957;28;20046;-74
2022/04/04 00:41:49;;;;;;;19.08;11.45;;;-1.50;99.90;;;-2.78;100.00;97924.50;5003095;28;20084;-74
2022/04/04 00:44:16;;;;;;;18.67;11.20;;;-1.50;99.90;;;-2.68;100.00;97922.94;5003504;28;20127;-74
2022/04/04 00:46:44;;;;;;;16.15;10.07;;;-1.50;99.90;;;-2.63;100.00;97913.69;4978563;28;20042;-74
2022/04/04 00:49:11;;;;;;;16.67;10.50;;;-1.50;99.90;;;-2.78;100.00;97916.88;5036240;28;20050;-74
2022/04/04 00:51:39;;;;;;;18.85;10.50;;;-1.60;99.90;;;-2.95;100.00;97916.59;4994859;28;20054;-73
2022/04/04 00:54:06;;;;;;;15.25;9.93;;;-1.60;99.90;;;-3.08;100.00;97920.63;5005753;28;20057;-73
2022/04/04 00:56:36;;;;;;;16.00;10.07;;;-1.60;99.90;;;-3.11;100.00;97912.09;5002476;28;20077;-73
2022/04/04 00:59:12;;;;;;;14.38;9.48;;;-1.70;99.90;;;-2.91;100.00;97898.03;5004284;28;20070;-73
2022/04/04 01:01:39;;;;;;;14.00;9.98;;;-1.70;99.90;;;-3.06;100.00;97900.31;4981799;28;20496;-72
2022/04/04 01:04:08;;;;;;;14.30;9.35;;;-1.80;99.90;;;-3.17;100.00;97898.47;5002731;28;20074;-72
2022/04/04 01:06:36;;;;;;;13.02;8.82;;;-1.80;99.90;;;-3.12;100.00;97897.66;4979757;28;20080;-73
2022/04/04 01:09:03;;;;;;;12.18;8.43;;;-1.80;99.90;;;-3.12;100.00;97900.22;5001619;28;20066;-72
2022/04/04 01:11:31;;;;;;;12.38;8.35;;;-1.80;99.90;;;-2.99;100.00;97899.59;5003148;28;20078;-73
2022/04/04 01:13:58;;;;;;;13.48;8.27;;;-1.90;99.90;;;-2.81;100.00;97892.25;5000777;28;20050;-73
2022/04/04 01:16:25;;;;;;;11.10;7.53;;;-1.80;99.90;;;-2.66;100.00;97898.41;4998768;28;20078;-72
2022/04/04 01:18:52;;;;;;;11.95;7.28;;;-1.80;99.90;;;-2.60;100.00;97886.66;5001628;28;20141;-73
2022/04/04 01:21:20;;;;;;;15.10;7.57;;;-1.70;99.90;;;-2.42;100.00;97891.13;5015421;28;20104;-73
2022/04/04 01:23:50;;;;;;;12.45;7.75;;;-1.60;99.90;;;-2.24;100.00;97893.06;4994150;28;20073;-73
2022/04/04 01:26:19;;;;;;;13.55;7.97;;;-1.50;99.90;;;-2.17;100.00;97879.56;5007283;28;20064;-72
2022/04/04 01:28:46;;;;;;;12.88;8.32;;;-1.40;99.90;;;-2.13;100.00;97880.47;5005924;28;20039;-73
2022/04/04 01:31:13;;;;;;;12.90;8.32;;;-1.30;99.90;;;-2.07;100.00;97872.09;4987140;28;20082;-73
2022/04/04 01:33:40;;;;;;;12.38;8.38;;;-1.30;99.90;;;-1.99;100.00;97868.78;4999742;28;20092;-73
2022/04/04 01:36:07;;;;;;;12.82;8.05;;;-1.20;99.90;;;-1.94;100.00;97863.75;4973778;28;20056;-72
2022/04/04 01:38:34;;;;;;;11.73;7.75;;;-1.20;99.90;;;-1.91;100.00;97868.88;4996170;28;20088;-73
2022/04/04 01:41:01;;;;;;;12.95;8.40;;;-1.10;99.90;;;-1.94;100.00;97859.53;5003440;28;20042;-73
2022/04/04 01:43:28;;;;;;;13.93;9.32;;;-1.10;99.90;;;-1.96;100.00;97857.78;5003192;28;20464;-72
2022/04/04 01:48:41;;;;;;;12.52;7.47;;;-1.10;99.90;;;-1.89;100.00;97859.59;4997824;28;20046;-73
2022/04/04 01:51:08;;;;;;;11.38;7.78;;;-1.10;99.90;;;-1.86;100.00;97859.59;5001925;28;20076;-74
2022/04/04 01:53:35;;;;;;;12.35;8.38;;;-1.10;99.90;;;-1.86;100.00;97859.59;5007984;28;20089;-73
2022/04/04 01:56:04;;;;;;;11.88;8.02;;;-1.10;99.90;;;-1.83;100.00;97857.09;5012137;28;20050;-73
2022/04/04 01:58:32;;;;;;;12.32;8.00;;;-1.10;99.90;;;-1.90;100.00;97860.41;5001927;28;20105;-74
2022/04/04 02:01:11;;;;;;;12.05;8.40;;;-1.10;99.90;;;-1.90;100.00;97861.25;4999360;28;20081;-73
2022/04/04 02:03:39;;;;;;;12.35;8.13;;;-1.10;99.90;;;-1.87;100.00;97857.03;5035284;28;20551;-73
2022/04/04 02:06:06;;;;;;;13.00;8.20;;;-1.10;99.90;;;-1.90;100.00;97856.16;5001576;28;20054;-73
2022/04/04 02:08:34;;;;;;;10.98;7.65;;;-1.10;99.90;;;-1.88;100.00;97853.66;4999741;28;20069;-74
2022/04/04 02:11:03;;;;;;;11.77;7.82;;;-1.10;99.90;;;-1.85;100.00;97863.00;5010209;28;20197;-73
2022/04/04 02:13:30;;;;;;;11.30;7.90;;;-1.10;99.90;;;-1.94;100.00;97863.75;4991939;28;20104;-73
2022/04/04 02:16:03;;;;;;;12.70;8.00;;;-1.10;99.90;;;-1.89;100.00;97854.50;5006947;28;20100;-73
2022/04/04 02:18:34;;;;;;;11.07;7.25;;;-1.10;99.90;;;-1.93;100.00;97853.59;5002830;28;20076;-72
2022/04/04 02:21:04;;;;;;;13.45;8.55;;;-1.10;99.90;;;-1.99;100.00;97855.22;5006948;28;20069;-73
2022/04/04 02:23:32;;;;;;;12.10;8.13;;;-1.10;99.90;;;-1.94;100.00;97851.91;5006851;28;20069;-73
2022/04/04 02:26:00;;;;;;;15.20;8.20;;;-1.10;99.90;;;-1.97;100.00;97851.84;5020084;28;20100;-73
2022/04/04 02:28:28;;;;;;;12.45;7.78;;;-1.10;99.90;;;-1.98;100.00;97846.75;5005953;28;20096;-73
2022/04/04 02:30:56;;;;;;;12.23;7.97;;;-1.10;99.90;;;-2.01;100.00;97852.66;5008932;28;20129;-73
2022/04/04 02:33:24;;;;;;;12.82;7.57;;;-1.10;99.90;;;-2.00;100.00;97850.97;5013171;28;20093;-73
2022/04/04 02:35:52;;;;;;;11.63;7.95;;;-1.10;99.90;;;-2.07;100.00;97854.28;4993124;28;20076;-72
2022/04/04 02:38:26;;;;;;;10.60;7.53;;;-1.20;99.90;;;-1.99;100.00;97853.53;5007012;28;20046;-73
2022/04/04 02:40:55;;;;;;;12.77;8.52;;;-1.20;99.90;;;-2.03;100.00;97845.84;5009903;28;20136;-73
2022/04/04 02:43:23;;;;;;;11.43;7.90;;;-1.20;99.90;;;-1.97;100.00;97848.47;5007446;28;20076;-73
2022/04/04 02:45:51;;;;;;;11.13;7.82;;;-1.20;99.90;;;-2.09;100.00;97850.88;5004089;28;20077;-73
2022/04/04 02:48:18;;;;;;;14.52;8.75;;;-1.20;99.90;;;-2.11;100.00;97849.16;5006844;28;20111;-72
2022/04/04 02:50:48;;;;;;;13.52;8.25;;;-1.20;99.90;;;-2.07;100.00;97850.06;5007716;28;20050;-73
2022/04/04 02:53:15;;;;;;;12.60;8.13;;;-1.20;99.90;;;-2.09;100.00;97846.63;5018283;28;20606;-74
2022/04/04 02:58:28;;;;;;;15.80;9.10;;;-1.30;99.90;;;-2.19;100.00;97848.22;5008620;28;20186;-73
2022/04/04 03:00:55;;;;;;;11.30;8.30;;;-1.30;99.90;;;-2.17;100.00;97840.59;5004624;28;20394;-74
2022/04/04 03:03:23;;;;;;;12.65;8.65;;;-1.30;99.90;;;-2.17;100.00;97838.03;4985170;28;20137;-73
2022/04/04 03:05:51;;;;;;;13.55;8.52;;;-1.30;99.90;;;-2.21;100.00;97836.28;5005998;28;20045;-73
2022/04/04 03:08:19;;;;;;;14.30;8.50;;;-1.30;99.90;;;-2.21;100.00;97839.72;5008419;28;20052;-73
2022/04/04 03:10:46;;;;;;;11.73;8.45;;;-1.30;99.90;;;-2.17;100.00;97840.59;5005368;28;20108;-73
2022/04/04 03:13:14;;;;;;;14.00;8.55;;;-1.30;99.90;;;-2.23;100.00;97841.38;5037475;28;20539;-73
2022/04/04 03:15:41;;;;;;;12.73;8.77;;;-1.30;99.90;;;-2.21;100.00;97836.28;5002901;28;20760;-73
2022/04/04 03:18:08;;;;;;;16.05;9.20;;;-1.30;99.90;;;-2.20;100.00;97835.47;4984716;28;20078;-73
2022/04/04 03:20:36;;;;;;;12.48;8.48;;;-1.30;99.90;;;-2.26;100.00;97826.06;5001279;28;20072;-73
2022/04/04 03:23:03;;;;;;;14.52;8.95;;;-1.30;99.90;;;-2.23;100.00;97827.81;4986972;28;20092;-73
2022/04/04 03:25:30;;;;;;;19.08;9.98;;;-1.30;99.90;;;-2.31;100.00;97826.00;4986443;28;20081;-73
2022/04/04 03:27:58;;;;;;;15.52;9.75;;;-1.40;99.90;;;-2.33;100.00;97821.75;5003399;28;20362;-73
2022/04/04 03:30:28;;;;;;;15.90;9.98;;;-1.40;99.90;;;-2.43;100.00;97814.84;5005908;28;20113;-73
2022/04/04 03:32:59;;;;;;;13.15;8.65;;;-1.50;99.90;;;-2.42;100.00;97822.47;4989926;28;20042;-74
2022/04/04 03:35:29;;;;;;;13.20;9.57;;;-1.50;99.90;;;-2.40;100.00;97820.81;4990411;28;20070;-73
2022/04/04 03:38:00;;;;;;;13.73;8.80;;;-1.50;99.90;;;-2.38;100.00;97818.31;5009487;28;20050;-73
2022/04/04 03:40:28;;;;;;;15.63;9.68;;;-1.50;99.90;;;-2.38;100.00;97814.06;5004141;28;20055;-74
2022/04/04 03:42:58;;;;;;;15.02;9.65;;;-1.60;99.90;;;-2.43;100.00;97807.22;4988570;28;20073;-72
2022/04/04 03:45:25;;;;;;;14.40;9.35;;;-1.60;99.90;;;-2.38;100.00;97808.13;5005547;28;20088;-73
2022/04/04 03:47:53;;;;;;;15.60;9.90;;;-1.60;99.90;;;-2.49;100.00;97797.81;5007005;28;20043;-73
2022/04/04 03:50:21;;;;;;;13.57;9.52;;;-1.50;99.90;;;-2.65;100.00;97804.41;5002748;28;20098;-73
2022/04/04 03:52:55;;;;;;;13.75;9.82;;;-1.50;99.90;;;-2.52;100.00;97801.19;5017708;28;20065;-73
2022/04/04 03:55:29;;;;;;;13.73;10.10;;;-1.50;99.90;;;-2.39;100.00;97803.91;4990522;28;20050;-73
2022/04/04 03:57:59;;;;;;;14.20;9.30;;;-1.50;99.90;;;-2.44;100.00;97802.97;5022366;28;20148;-73
2022/04/04 04:00:27;;;;;;;16.48;10.07;;;-1.50;99.90;;;-2.34;100.00;97798.03;5004338;28;20609;-72
2022/04/04 04:02:55;;;;;;;13.70;8.98;;;-1.40;99.90;;;-2.34;100.00;97803.09;5001878;28;20081;-72
2022/04/04 04:05:22;;;;;;;15.88;10.35;;;-1.40;99.90;;;-2.27;100.00;97798.94;5003608;28;20076;-72
2022/04/04 04:07:50;;;;;;;14.45;9.88;;;-1.30;99.90;;;-2.31;100.00;97794.66;5004455;28;20042;-72
2022/04/04 04:10:17;;;;;;;14.98;10.75;;;-1.30;99.90;;;-2.23;100.00;97797.31;5004552;28;20165;-73
2022/04/04 04:12:45;;;;;;;19.10;10.13;;;-1.20;99.90;;;-2.26;100.00;97795.56;5005006;28;20045;-72
2022/04/04 04:15:23;;;;;;;14.10;9.90;;;-1.20;99.90;;;-2.28;100.00;97793.84;4991554;28;20085;-73
2022/04/04 04:17:52;;;;;;;16.30;10.32;;;-1.20;99.90;;;-2.33;100.00;97791.25;5035877;28;20053;-72
2022/04/04 04:20:29;;;;;;;16.92;10.95;;;-1.20;99.90;;;-2.34;100.00;97787.00;5000770;28;20057;-73
2022/04/04 04:23:07;;;;;;;16.50;11.25;;;-1.20;99.90;;;-2.43;100.00;97784.34;5005660;28;20249;-72
2022/04/04 04:25:36;;;;;;;14.93;11.25;;;-1.10;99.90;;;-2.41;100.00;97782.69;5015595;28;20077;-72
2022/04/04 04:28:06;;;;;;;15.60;10.45;;;-1.10;99.90;;;-2.36;100.00;97784.44;4992265;28;20534;-73
2022/04/04 04:30:33;;;;;;;16.58;11.75;;;-1.10;99.90;;;-2.34;100.00;97785.31;5002088;28;20468;-73
2022/04/04 04:33:03;;;;;;;16.55;10.77;;;-1.00;99.90;;;-2.21;100.00;97781.22;5001237;28;20050;-73
2022/04/04 04:35:31;;;;;;;20.05;13.05;;;-1.10;99.90;;;-2.36;100.00;97779.34;4997693;28;20049;-73
2022/04/04 04:37:57;;;;;;;16.63;12.18;;;-1.00;99.90;;;-2.32;100.00;97788.72;4998474;28;20149;-73
2022/04/04 04:40:27;;;;;;;21.13;11.93;;;-1.00;99.90;;;-2.27;100.00;97777.75;5000277;28;20076;-73
2022/04/04 04:42:56;;;;;;;16.63;12.15;;;-1.10;99.90;;;-2.28;100.00;97781.13;4992847;28;20050;-72
2022/04/04 04:45:23;;;;;;;17.13;12.32;;;-1.00;99.90;;;-2.28;100.00;97778.59;4975141;28;20508;-73
2022/04/04 04:47:51;;;;;;;17.00;12.18;;;-1.10;99.90;;;-2.33;100.00;97774.31;5004565;28;20088;-73
2022/04/04 04:50:21;;;;;;;16.13;11.80;;;-1.10;99.90;;;-2.30;100.00;97773.50;4997247;28;20054;-73
2022/04/04 04:52:49;;;;;;;17.73;11.77;;;-1.10;99.90;;;-2.28;100.00;97773.50;5031128;28;20076;-73
2022/04/04 04:55:18;;;;;;;16.67;11.25;;;-1.10;99.90;;;-2.37;100.00;97774.28;5006561;28;20180;-73
2022/04/04 04:57:46;;;;;;;14.75;10.63;;;-1.10;99.90;;;-2.33;100.00;97775.97;5025706;28;20141;-72
2022/04/04 05:00:16;;;;;;;17.38;11.82;;;-1.10;99.90;;;-2.37;100.00;97779.34;4994934;28;20065;-73
2022/04/04 05:02:43;;;;;;;16.38;11.68;;;-1.00;99.90;;;-2.39;100.00;97776.78;5003035;28;20070;-73
2022/04/04 05:05:12;;;;;;;17.58;13.13;;;-1.00;99.90;;;-2.15;100.00;97762.63;5002799;28;20050;-73
2022/04/04 05:07:39;;;;;;;22.25;15.32;;;-1.00;99.90;;;-2.34;100.00;97767.50;5002988;28;20062;-73
2022/04/04 05:10:06;;;;;;;21.88;13.75;;;-1.00;99.90;;;-2.28;100.00;97769.28;5003954;28;20463;-72
2022/04/04 05:12:34;;;;;;;18.20;13.23;;;-1.00;99.90;;;-2.30;100.00;97758.25;5004221;28;20420;-73
2022/04/04 05:15:00;;;;;;;23.75;13.38;;;-1.00;99.90;;;-2.31;100.00;97764.16;4999786;28;20117;-73
2022/04/04 05:17:28;;;;;;;19.67;12.25;;;-0.90;99.90;;;-2.29;100.00;97761.63;5006906;28;20126;-73
2022/04/04 05:19:58;;;;;;;20.85;14.45;;;-0.90;99.90;;;-2.34;100.00;97767.50;5003827;28;20124;-72
2022/04/04 05:22:25;;;;;;;19.40;14.20;;;-0.90;99.90;;;-2.27;100.00;97758.25;5036956;28;20424;-73
2022/04/04 05:24:52;;;;;;;19.63;12.88;;;-0.90;99.90;;;-2.14;100.00;97759.25;5005629;28;20133;-73
2022/04/04 05:27:19;;;;;;;18.88;13.52;;;-0.90;99.90;;;-2.22;100.00;97764.25;5007890;28;20489;-73
2022/04/04 05:29:47;;;;;;;20.30;14.20;;;-1.00;99.90;;;-2.32;100.00;97765.00;5002246;28;20578;-72
2022/04/04 05:32:14;;;;;;;20.33;14.23;;;-0.90;99.90;;;-2.32;100.00;97767.53;5003159;28;20058;-73
2022/04/04 05:34:41;;;;;;;25.52;15.80;;;-0.90;99.90;;;-2.21;100.00;97755.81;5003517;28;20054;-74
2022/04/04 05:37:07;;;;;;;18.63;14.10;;;-0.90;99.90;;;-2.28;100.00;97770.94;5011772;28;20081;-74
2022/04/04 05:39:35;;;;;;;21.50;15.02;;;-0.90;99.90;;;-2.28;100.00;97766.75;5006597;28;20523;-74
2022/04/04 05:42:02;;;;;;;27.08;16.95;;;-1.00;99.90;;;-2.34;100.00;97759.88;5008019;28;20126;-73
2022/04/04 05:44:29;;;;;;;21.58;15.60;;;-1.00;99.90;;;-2.37;100.00;97766.66;5015408;28;20050;-74
2022/04/04 05:46:56;;;;;;;24.23;16.33;;;-1.00;99.90;;;-2.33;100.00;97760.72;5040570;28;20606;-74
2022/04/04 05:49:23;;;;;;;21.83;15.10;;;-1.00;99.90;;;-2.36;100.00;97764.09;5006505;28;20054;-73
2022/04/04 05:51:51;;;;;;;22.42;15.80;;;-1.00;99.90;;;-2.40;100.00;97767.44;5005940;28;20148;-73
2022/04/04 05:54:33;;;;;;;22.63;15.45;;;-1.00;99.90;;;-2.31;100.00;97761.59;5033694;28;20050;-74
2022/04/04 05:57:01;;;;;;;21.92;14.60;;;-1.00;99.90;;;-2.35;100.00;97764.94;5021950;28;20100;-73
2022/04/04 05:59:28;;;;;;;22.98;16.42;;;-1.00;99.90;;;-2.38;100.00;97764.91;5005799;28;20061;-74
2022/04/04 06:01:55;;;;;;;23.50;15.70;;;-1.00;99.90;;;-2.42;100.00;97770.78;5003207;28;20124;-73
2022/04/04 06:04:23;;;;;;;24.95;16.58;;;-0.90;99.90;;;-2.37;100.00;97766.66;4978733;28;20140;-73
2022/04/04 06:06:50;;;;;;;22.95;14.55;;;-0.90;99.90;;;-2.36;100.00;97765.78;5008889;28;20057;-74
2022/04/04 06:09:17;;;;;;;20.92;14.82;;;-1.00;99.90;;;-2.31;100.00;97774.31;5012127;28;20077;-73
2022/04/04 06:11:44;;;;;;;23.15;14.57;;;-0.90;99.90;;;-2.38;100.00;97768.31;5043206;28;20049;-74
2022/04/04 06:14:11;;;;;;;23.45;14.60;;;-0.90;99.90;;;-2.45;100.00;97768.22;5014183;28;20069;-73
2022/04/04 06:16:38;;;;;;;24.67;15.20;;;-0.90;99.90;;;-2.34;100.00;97759.88;5004972;28;20097;-75
2022/04/04 06:19:05;;;;;;;18.92;13.70;;;-1.00;99.90;;;-2.37;100.00;97767.50;5041971;28;20116;-73
2022/04/04 06:21:32;;;;;;;20.00;14.02;;;-0.90;99.90;;;-2.35;100.00;97765.81;5041688;28;20046;-74
2022/04/04 06:23:59;;;;;;;18.67;14.07;;;-0.80;99.90;;;-2.28;100.00;97766.75;5018880;28;20061;-74
2022/04/04 06:26:28;;;;;;;23.45;15.07;;;-0.80;99.90;;;-2.35;100.00;97765.81;5025221;28;20092;-74
2022/04/04 06:28:55;;;;;;;20.58;14.73;;;-0.70;99.90;;;-2.17;100.00;97764.28;5024479;28;20113;-74
2022/04/04 06:31:23;;;;;;;21.90;13.68;;;-0.60;99.90;;;-2.09;100.00;97765.25;5008634;28;20145;-74
2022/04/04 06:33:50;;;;;;;22.77;14.65;;;-0.70;99.90;;;-2.12;100.00;97767.78;5013103;28;20149;-74
2022/04/04 06:36:17;;;;;;;20.15;13.98;;;-0.70;99.90;;;-2.18;100.00;97766.00;5015125;28;20086;-73
2022/04/04 06:38:44;;;;;;;19.58;13.57;;;-0.60;99.90;;;-2.05;100.00;97761.91;5009616;28;20081;-74
2022/04/04 06:41:11;;;;;;;21.70;14.05;;;-0.50;99.90;;;-1.94;100.00;97765.41;5010363;28;20129;-73
2022/04/04 06:43:38;;;;;;;24.15;14.93;;;-0.50;99.90;;;-1.94;100.00;97762.88;5013592;28;20125;-73
2022/04/04 06:46:05;;;;;;;20.67;12.40;;;-0.40;99.90;;;-1.88;100.00;97761.22;5014058;28;20109;-74
2022/04/04 06:48:33;;;;;;;19.55;12.52;;;-0.40;99.90;;;-1.82;100.00;97759.59;5019057;28;20099;-73
2022/04/04 06:51:01;;;;;;;15.63;11.02;;;-0.30;99.90;;;-1.72;100.00;97756.25;5014127;28;20076;-74
2022/04/04 06:53:27;;;;;;;16.98;12.15;;;-0.20;99.90;;;-1.80;100.00;97750.28;5010455;28;20132;-74
2022/04/04 06:55:55;;;;;;;18.30;13.23;;;-0.10;99.90;;;-1.73;100.00;97753.72;5010856;28;20053;-73
2022/04/04 06:58:22;;;;;;;19.63;12.30;;;0.00;99.90;;;-1.58;100.00;97747.91;5008880;28;20046;-73
2022/04/04 07:00:49;;;;;;;17.60;12.27;;;0.10;99.90;;;-1.36;100.00;97744.69;5010341;28;20404;-74
2022/04/04 07:03:16;;;;;;;16.15;11.40;;;0.10;99.90;;;-1.22;100.00;97739.69;5008480;28;20041;-74
2022/04/04 07:05:44;;;;;;;20.83;12.32;;;0.20;99.90;;;-1.38;100.00;97740.41;5009208;28;20062;-74
2022/04/04 07:08:11;;;;;;;17.02;12.15;;;0.30;99.90;;;-1.33;100.00;97729.41;5021981;28;20397;-74
2022/04/04 07:10:38;;;;;;;19.10;12.98;;;0.40;99.90;;;-1.23;100.00;97730.34;5012192;28;20142;-74
2022/04/04 07:13:05;;;;;;;17.90;12.07;;;0.50;99.90;;;-1.15;100.00;97721.03;5007352;28;20100;-75
2022/04/04 07:15:33;;;;;;;17.77;12.32;;;0.50;99.90;;;-1.03;100.00;97720.25;5006154;28;20050;-74
2022/04/04 07:18:01;;;;;;;18.52;12.13;;;0.60;99.90;;;-0.84;100.00;97716.13;5006939;28;20544;-73
2022/04/04 07:20:28;;;;;;;17.15;12.05;;;0.60;99.90;;;-0.96;100.00;97705.84;5004806;28;20484;-73
2022/04/04 07:22:56;;;;;;;15.93;11.50;;;0.70;99.90;;;-0.86;100.00;97705.91;5039617;28;20464;-73
2022/04/04 07:25:23;;;;;;;16.88;12.38;;;0.80;99.90;;;-0.76;100.00;97714.44;4993234;28;20064;-72
2022/04/04 07:27:51;;;;;;;22.45;13.23;;;0.80;99.90;;;-0.77;100.00;97710.22;5006388;28;20125;-73
2022/04/04 07:30:19;;;;;;;18.15;12.27;;;1.00;99.90;;;-0.55;100.00;97711.13;5008266;28;20520;-73
2022/04/04 07:32:48;;;;;;;15.43;12.10;;;1.10;99.90;;;-0.28;100.00;97701.88;5003540;28;20046;-73
2022/04/04 07:35:16;;;;;;;18.05;11.95;;;1.20;99.90;;;-0.31;100.00;97706.97;5010063;28;20660;-73
2022/04/04 07:37:45;;;;;;;16.15;11.73;;;1.20;99.90;;;-0.17;100.00;97705.28;5005476;28;20078;-73
2022/04/04 07:40:15;;;;;;;16.92;11.57;;;1.30;99.90;;;0.10;100.00;97696.81;5005499;28;20461;-72
2022/04/04 07:42:45;;;;;;;16.05;12.30;;;1.40;99.90;;;0.07;100.00;97696.84;5009538;28;20054;-73
2022/04/04 07:45:14;;;;;;;17.00;12.35;;;1.60;99.90;;;0.53;100.00;97680.66;5010016;28;20472;-73
2022/04/04 07:47:43;;;;;;;16.08;11.48;;;1.70;99.90;;;0.58;100.00;97687.47;5020198;28;20057;-75
2022/04/04 07:50:13;;;;;;;15.27;11.38;;;1.80;99.90;;;0.62;100.00;97688.31;4992289;28;20522;-74
2022/04/04 07:52:41;;;;;;;16.30;11.52;;;1.90;99.90;;;0.73;100.00;97672.94;5006631;28;20057;-74
2022/04/04 07:55:11;;;;;;;14.48;9.98;;;2.00;99.90;;;0.71;100.00;97685.75;5008192;28;20141;-72
2022/04/04 07:57:39;;;;;;;15.15;10.43;;;2.10;99.90;;;0.58;100.00;97710.44;5012897;28;20140;-74
2022/04/04 08:00:28;;;;;;;14.20;10.73;;;2.20;99.90;;;0.76;100.00;97673.81;5009349;28;20100;-74
2022/04/04 08:02:55;;;;;;;14.23;10.43;;;2.30;99.90;;;0.69;100.00;97676.38;5010289;28;20108;-74
2022/04/04 08:05:23;;;;;;;14.45;10.45;;;2.40;99.90;;;1.11;100.00;97667.72;5010121;28;20566;-73
2022/04/04 08:07:52;;;;;;;13.55;10.32;;;2.50;99.90;;;1.28;100.00;97664.25;5034190;28;20084;-74
2022/04/04 08:10:24;;;;;;;13.43;9.65;;;2.60;99.90;;;1.52;100.00;97648.78;5003392;28;20065;-74
2022/04/04 08:12:53;;;;;;;12.50;9.68;;;2.90;99.90;;;1.64;100.00;97650.44;5003827;28;20046;-73
2022/04/04 08:15:20;;;;;;;14.70;9.57;;;3.20;99.90;;;1.90;100.00;97644.31;5000172;28;20085;-74
2022/04/04 08:17:55;;;;;;;12.02;7.90;;;3.40;99.90;;;2.30;100.00;97635.47;4998288;28;20070;-75
2022/04/04 08:20:22;;;;;;;12.13;7.30;;;3.80;99.90;;;1.94;100.00;97651.09;5000243;28;20165;-75
2022/04/04 08:22:49;;;;;;;12.13;6.03;;;4.10;99.90;;;2.40;100.00;97654.16;5000821;28;20129;-75
2022/04/04 08:25:17;;;;;;;11.27;6.82;;;4.00;99.90;;;2.26;100.00;97633.78;5006397;28;20050;-74
2022/04/04 08:27:46;;;;;;;10.50;7.57;;;4.30;99.90;;;2.47;100.00;97640.41;5003660;28;20087;-74
2022/04/04 08:30:17;;;;;;;11.88;7.50;;;4.50;99.90;;;2.79;100.00;97633.28;5002758;28;20383;-74
2022/04/04 08:32:45;;;;;;;10.85;7.05;;;4.80;99.90;;;3.47;100.00;97620.47;5035432;28;20053;-74
2022/04/04 08:35:14;;;;;;;10.90;7.22;;;4.90;99.90;;;3.42;100.00;97627.38;5000432;28;20069;-73
2022/04/04 08:37:43;;;;;;;8.35;6.57;;;;;;;3.38;100.00;97628.31;5017964;28;20169;-76
2022/04/04 08:40:13;;;;;;;12.35;6.88;;;5.30;99.90;;;3.91;100.00;97617.25;4997579;28;20061;-74
2022/04/04 08:42:41;;;;;;;13.05;7.35;;;5.40;99.90;;;3.60;100.00;97611.72;4995620;28;20052;-75
2022/04/04 08:45:09;;;;;;;9.48;6.32;;;5.60;99.90;;;4.00;100.00;97626.53;4996108;28;20050;-74
2022/04/04 08:47:38;;;;;;;9.05;5.90;;;5.60;99.90;;;3.49;100.00;97624.72;4992982;28;20128;-72
2022/04/04 08:50:06;;;;;;;10.73;6.13;;;5.70;99.90;;;4.03;100.00;97597.41;5006753;28;20618;-72
2022/04/04 08:52:33;;;;;;;10.65;7.07;;;5.90;99.90;;;4.06;100.00;97605.91;5000793;28;20056;-75
2022/04/04 08:55:00;;;;;;;13.15;9.30;;;6.10;99.90;;;4.33;100.00;97601.16;4997738;28;20156;-74
2022/04/04 08:57:27;;;;;;;11.52;7.32;;;6.00;99.90;;;5.16;100.00;97603.03;5003434;28;20062;-74
2022/04/04 08:59:54;;;;;;;10.52;5.05;;;6.10;99.90;;;5.59;100.00;97576.38;5004174;28;20096;-74
2022/04/04 09:02:21;;;;;;;9.70;5.20;;;6.10;99.90;;;5.37;100.00;97593.16;4999663;28;20503;-74
2022/04/04 09:04:52;;;;;;;7.95;5.13;;;6.30;99.90;;;5.06;100.00;97577.50;4996789;28;20528;-73
2022/04/04 09:07:21;;;;;;;9.10;5.65;;;6.70;98.80;;;4.81;100.00;97593.41;5002196;28;20416;-75
2022/04/04 09:09:52;;;;;;;7.95;5.45;;;6.70;98.20;;;5.31;100.00;97585.56;5016872;28;20049;-74
2022/04/04 09:12:23;;;;;;;7.53;4.95;;;6.90;98.10;;;5.04;100.00;97582.72;5002157;28;20126;-72
2022/04/04 09:14:56;;;;;;;9.00;4.57;;;6.70;97.50;;;4.71;100.00;97584.22;5007231;28;20069;-73
2022/04/04 09:17:30;;;;;;;9.65;4.90;;;7.00;96.50;;;4.99;100.00;97577.63;5007670;28;20097;-72
2022/04/04 09:19:58;;;;;;;8.70;5.15;;;6.80;95.90;;;5.65;100.00;97567.63;5008663;28;20057;-72
2022/04/04 09:22:26;;;;;;;6.88;4.70;;;7.00;96.10;;;5.21;100.00;97556.59;5034428;28;20055;-73
2022/04/04 09:24:56;;;;;;;8.50;4.40;;;7.00;95.90;;;6.00;100.00;97547.97;5007952;28;20129;-73
2022/04/04 09:27:36;;;;;;;8.80;4.60;;;7.00;95.50;;;5.18;100.00;97556.69;5019232;28;20101;-73
2022/04/04 09:30:07;;;;;;;7.20;4.25;;;7.10;95.00;;;5.98;100.00;97532.53;5008991;28;20389;-76
2022/04/04 09:32:40;;;;;;;9.25;4.28;;;7.40;94.90;;;6.06;100.00;97546.06;5003776;28;20134;-73
2022/04/04 09:35:18;;;;;;;5.97;3.95;;;7.50;94.00;;;6.39;100.00;97542.69;5001841;28;20100;-73
2022/04/04 09:37:50;;;;;;;6.38;3.50;;;7.60;93.60;;;5.52;100.00;97564.50;5008923;28;20539;-73
2022/04/04 09:40:20;;;;;;;5.93;3.80;;;7.70;91.00;;;6.03;100.00;97525.53;5007252;28;20535;-74
2022/04/04 09:43:07;;;;;;;6.78;3.88;;;7.70;91.90;;;5.96;100.00;97529.16;5007498;28;20046;-73
2022/04/04 09:45:34;;;;;;;5.85;3.55;;;7.50;91.00;;;5.37;100.00;97524.50;5006516;28;20137;-73
2022/04/04 09:48:08;;;;;;;7.95;3.95;;;7.80;90.90;;;5.87;100.00;97527.63;5007314;28;20806;-73
2022/04/04 09:50:48;;;;;;;8.95;4.03;;;7.70;90.90;;;5.85;100.00;97489.91;5003971;28;20045;-73
2022/04/04 09:53:29;;;;;;;7.78;3.65;;;7.90;90.90;;;6.54;100.00;97500.16;5003760;28;20168;-72
2022/04/04 09:56:00;;;;;;;7.53;3.55;;;7.90;91.40;;;7.11;100.00;97489.03;5022161;28;20114;-72
2022/04/04 09:58:32;;;;;;;5.68;3.22;;;8.00;90.70;;;6.40;100.00;97500.53;4999482;28;20050;-73
2022/04/04 10:01:01;;;;;;;7.00;4.07;;;8.10;91.10;;;5.79;100.00;97487.47;5005893;28;20058;-73
2022/04/04 10:03:31;;;;;;;4.43;2.95;;;8.40;89.70;;;6.69;100.00;97473.94;5001891;28;20066;-73
2022/04/04 10:06:08;;;;;;;7.93;3.80;;;8.50;89.90;;;6.04;100.00;97498.03;4996960;28;20046;-73
2022/04/04 10:08:38;;;;;;;6.20;3.33;;;8.50;86.50;;;5.90;100.00;97489.78;4994295;28;20051;-75
2022/04/04 10:11:09;;;;;;;6.60;3.15;;;8.20;86.80;;;6.35;100.00;97492.91;4997428;28;20471;-75
2022/04/04 10:13:37;;;;;;;5.28;3.40;;;8.30;87.70;;;5.27;100.00;97497.28;4999198;28;20077;-75
2022/04/04 10:16:05;;;;;;;8.15;4.03;;;8.00;87.40;;;5.71;100.00;97485.09;4996783;28;20174;-75
2022/04/04 10:18:35;;;;;;;8.15;4.43;;;7.70;88.00;;;5.82;100.00;97493.41;4998050;28;20516;-75